createdAt,value
2018-12-13T00:01:26.902Z,0.10
2018-12-13T00:04:07.253Z,0.20
2018-12-13T00:06:51.231Z,0.20
2018-12-13T00:09:31.385Z,0.20
2018-12-13T00:12:16.008Z,0.20
2018-12-13T00:15:06.191Z,0.20
2018-12-13T00:17:45.721Z,0.20
2018-12-13T00:20:26.676Z,0.20
2018-12-13T00:23:00.124Z,0.20
2018-12-13T00:25:29.846Z,0.10
2018-12-13T00:37:12.619Z,0.20
2018-12-13T00:39:53.700Z,0.20
2018-12-13T00:42:33.471Z,0.20
2018-12-13T00:51:12.497Z,0.30
2018-12-13T00:56:51.533Z,0.20
2018-12-13T00:59:33.931Z,0.20
2018-12-13T01:02:13.861Z,0.20
2018-12-13T01:04:48.553Z,0.20
2018-12-13T01:07:22.145Z,0.20
2018-12-13T01:10:02.210Z,0.20
2018-12-13T01:12:52.564Z,0.20
2018-12-13T01:15:39.043Z,0.40
2018-12-13T01:18:19.179Z,0.50
2018-12-13T01:21:03.604Z,0.60
2018-12-13T01:23:48.013Z,0.60
2018-12-13T01:26:21.007Z,0.40
2018-12-13T01:31:49.693Z,0.20
2018-12-13T01:34:29.532Z,0.10
2018-12-13T01:37:09.320Z,0.00
2018-12-13T01:39:52.859Z,-0.10
2018-12-13T01:42:34.766Z,-0.20
2018-12-13T01:45:12.025Z,-0.20
2018-12-13T01:47:43.345Z,-0.20
2018-12-13T01:50:16.523Z,-0.20
2018-12-13T01:52:56.921Z,-0.20
2018-12-13T01:55:27.982Z,-0.20
2018-12-13T01:58:14.433Z,-0.20
2018-12-13T02:00:54.705Z,-0.20
2018-12-13T02:06:18.620Z,-0.20
2018-12-13T02:08:49.581Z,-0.20
2018-12-13T02:14:30.328Z,-0.10
2018-12-13T02:17:21.079Z,0.00
2018-12-13T02:23:11.346Z,0.00
2018-12-13T02:25:41.066Z,0.00
2018-12-13T02:28:12.753Z,0.00
2018-12-13T02:30:53.182Z,-0.10
2018-12-13T02:33:33.145Z,-0.20
2018-12-13T02:36:04.130Z,-0.10
2018-12-13T02:41:38.492Z,0.10
2018-12-13T02:44:18.103Z,0.00
2018-12-13T02:46:48.975Z,0.20
2018-12-13T02:49:19.834Z,0.30
2018-12-13T02:52:05.998Z,0.30
2018-12-13T02:57:38.904Z,0.40
2018-12-13T03:00:20.800Z,0.40
2018-12-13T03:03:11.121Z,0.40
2018-12-13T03:05:46.133Z,0.30
2018-12-13T03:08:17.931Z,0.20
2018-12-13T03:10:49.819Z,0.20
2018-12-13T03:13:37.722Z,0.30
2018-12-13T03:19:03.253Z,0.60
2018-12-13T03:21:34.163Z,0.60
2018-12-13T03:24:07.665Z,0.50
2018-12-13T03:26:37.133Z,0.50
2018-12-13T03:29:12.375Z,0.40
2018-12-13T03:34:57.418Z,0.20
2018-12-13T03:37:37.431Z,0.00
2018-12-13T03:40:19.033Z,-0.20
2018-12-13T03:42:56.410Z,-0.30
2018-12-13T03:45:27.966Z,-0.40
2018-12-13T03:48:07.503Z,-0.50
2018-12-13T03:50:45.135Z,-0.50
2018-12-13T03:53:15.101Z,-0.60
2018-12-13T03:55:44.434Z,-0.70
2018-12-13T03:58:26.011Z,-0.70
2018-12-13T04:00:59.437Z,-0.80
2018-12-13T04:03:38.835Z,-0.80
2018-12-13T04:06:12.243Z,-0.80
2018-12-13T04:09:00.596Z,-0.80
2018-12-13T04:11:34.444Z,-0.80
2018-12-13T04:14:13.887Z,-0.80
2018-12-13T04:16:53.829Z,-0.80
2018-12-13T04:19:24.693Z,-0.70
2018-12-13T04:25:01.191Z,-0.60
2018-12-13T04:27:34.273Z,-0.50
2018-12-13T04:30:07.974Z,-0.50
2018-12-13T04:32:49.439Z,-0.60
2018-12-13T04:35:23.328Z,-0.60
2018-12-13T04:37:58.012Z,-0.60
2018-12-13T04:40:45.676Z,-0.60
2018-12-13T04:43:23.399Z,-0.70
2018-12-13T04:45:56.507Z,-0.70
2018-12-13T04:48:30.502Z,-0.80
2018-12-13T04:51:10.369Z,-0.80
2018-12-13T04:53:44.192Z,-0.90
2018-12-13T04:56:15.152Z,-0.90
2018-12-13T05:01:48.587Z,-0.90
2018-12-13T05:04:36.656Z,-0.90
2018-12-13T05:07:07.456Z,-1.00
2018-12-13T05:12:47.870Z,-1.10
2018-12-13T05:15:29.657Z,-1.10
2018-12-13T05:18:09.192Z,-1.20
2018-12-13T05:20:42.348Z,-1.30
2018-12-13T05:23:23.865Z,-1.30
2018-12-13T05:26:06.342Z,-1.30
2018-12-13T05:28:46.412Z,-1.30
2018-12-13T05:31:21.993Z,-1.30
2018-12-13T05:33:53.216Z,-1.30
2018-12-13T05:36:39.771Z,-1.30
2018-12-13T05:39:24.426Z,-1.30
2018-12-13T05:41:57.846Z,-1.20
2018-12-13T05:44:31.420Z,-1.00
2018-12-13T05:47:02.145Z,-1.00
2018-12-13T05:49:31.791Z,-1.00
2018-12-13T05:52:05.365Z,-0.90
2018-12-13T05:54:53.436Z,-0.90
2018-12-13T06:00:23.095Z,-0.90
2018-12-13T06:06:06.439Z,-0.90
2018-12-13T06:08:46.809Z,-0.90
2018-12-13T06:11:27.222Z,-0.80
2018-12-13T06:14:00.872Z,-0.80
2018-12-13T06:16:48.353Z,-0.90
2018-12-13T06:19:28.535Z,-1.00
2018-12-13T06:22:02.439Z,-1.20
2018-12-13T06:27:44.959Z,-1.30
2018-12-13T06:30:16.534Z,-1.40
2018-12-13T06:32:56.507Z,-1.40
2018-12-13T06:41:21.657Z,-1.10
2018-12-13T06:44:02.061Z,-1.10
2018-12-13T06:46:33.688Z,-1.20
2018-12-13T06:49:14.162Z,-1.10
2018-12-13T06:52:01.903Z,-1.00
2018-12-13T06:54:41.398Z,-0.80
2018-12-13T06:57:22.037Z,-0.70
2018-12-13T07:00:02.437Z,-0.70
2018-12-13T07:05:36.407Z,-0.90
2018-12-13T07:08:16.507Z,-0.90
2018-12-13T07:10:56.801Z,-1.00
2018-12-13T07:13:28.660Z,-1.00
2018-12-13T07:16:02.283Z,-0.90
2018-12-13T07:18:42.520Z,-1.00
2018-12-13T07:21:29.277Z,-0.90
2018-12-13T07:24:02.343Z,-0.90
2018-12-13T07:26:42.359Z,-1.10
2018-12-13T07:29:16.559Z,-1.20
2018-12-13T07:35:09.350Z,-0.90
2018-12-13T07:37:43.779Z,-0.60
2018-12-13T07:40:15.057Z,-0.60
2018-12-13T07:42:56.627Z,-0.70
2018-12-13T07:45:28.132Z,-0.70
2018-12-13T07:47:59.223Z,-0.90
2018-12-13T07:50:39.254Z,-0.90
2018-12-13T07:53:19.816Z,-1.10
2018-12-13T07:55:59.936Z,-1.10
2018-12-13T07:58:29.535Z,-1.10
2018-12-13T08:01:00.444Z,-1.20
2018-12-13T08:03:39.348Z,-1.30
2018-12-13T08:06:19.175Z,-1.30
2018-12-13T08:08:50.766Z,-1.30
2018-12-13T08:11:22.133Z,-1.30
2018-12-13T08:14:10.148Z,-1.30
2018-12-13T08:16:41.299Z,-1.40
2018-12-13T08:19:12.631Z,-1.40
2018-12-13T08:21:46.436Z,-1.30
2018-12-13T08:24:26.241Z,-1.40
2018-12-13T08:26:57.079Z,-1.40
2018-12-13T08:32:37.593Z,-1.30
2018-12-13T08:35:17.351Z,-1.50
2018-12-13T08:37:51.207Z,-1.50
2018-12-13T08:40:23.307Z,-1.40
2018-12-13T08:43:00.504Z,-1.30
2018-12-13T08:45:40.677Z,-1.00
2018-12-13T08:48:14.624Z,-0.80
2018-12-13T08:50:47.765Z,-0.50
2018-12-13T08:53:22.246Z,-0.40
2018-12-13T08:55:53.318Z,-0.20
2018-12-13T08:58:33.495Z,-0.30
2018-12-13T09:04:07.787Z,-0.50
2018-12-13T09:06:48.223Z,-0.70
2018-12-13T09:09:31.752Z,-0.80
2018-12-13T09:12:22.524Z,-1.00
2018-12-13T09:14:56.045Z,-0.90
2018-12-13T09:17:35.739Z,-0.70
2018-12-13T09:20:09.542Z,-0.70
2018-12-13T09:22:57.521Z,-0.60
2018-12-13T09:25:37.470Z,-0.30
2018-12-13T09:28:09.160Z,-0.30
2018-12-13T09:30:40.715Z,-0.40
2018-12-13T09:33:12.185Z,-0.40
2018-12-13T09:35:52.648Z,-0.40
2018-12-13T09:38:27.435Z,-0.40
2018-12-13T09:44:04.265Z,-0.50
2018-12-13T09:46:35.359Z,-0.50
2018-12-13T09:49:06.665Z,-0.60
2018-12-13T09:51:38.273Z,-0.50
2018-12-13T09:54:09.712Z,-0.40
2018-12-13T09:56:43.245Z,-0.30
2018-12-13T09:59:33.405Z,-0.40
2018-12-13T10:02:06.770Z,-0.30
2018-12-13T10:04:40.271Z,0.00
2018-12-13T10:07:11.061Z,0.20
2018-12-13T10:09:51.038Z,0.50
2018-12-13T10:12:39.871Z,0.20
2018-12-13T10:15:09.358Z,0.10
2018-12-13T10:17:40.785Z,0.10
2018-12-13T10:20:14.579Z,0.00
2018-12-13T10:22:54.999Z,0.10
2018-12-13T10:25:26.559Z,0.20
2018-12-13T10:28:07.026Z,0.30
2018-12-13T10:30:47.395Z,0.40
2018-12-13T10:33:27.859Z,0.80
2018-12-13T10:36:01.829Z,1.00
2018-12-13T10:38:35.408Z,1.00
2018-12-13T10:41:06.518Z,0.60
2018-12-13T10:43:40.473Z,0.50
2018-12-13T10:46:14.040Z,0.20
2018-12-13T10:48:44.976Z,0.10
2018-12-13T10:51:16.292Z,0.40
2018-12-13T10:53:46.953Z,0.40
2018-12-13T10:56:26.829Z,0.40
2018-12-13T10:58:58.307Z,0.30
2018-12-13T11:01:49.193Z,0.40
2018-12-13T11:07:10.779Z,0.70
2018-12-13T11:09:42.046Z,0.80
2018-12-13T11:12:16.781Z,1.30
2018-12-13T11:14:50.166Z,1.40
2018-12-13T11:17:25.874Z,1.20
2018-12-13T11:19:59.623Z,1.20
2018-12-13T11:22:32.850Z,1.00
2018-12-13T11:25:13.107Z,0.80
2018-12-13T11:27:52.780Z,0.80
2018-12-13T11:30:24.356Z,0.70
2018-12-13T11:33:04.784Z,0.80
2018-12-13T11:35:48.816Z,0.90
2018-12-13T11:38:28.591Z,0.70
2018-12-13T11:41:08.395Z,0.60
2018-12-13T11:43:48.246Z,0.50
2018-12-13T11:46:19.304Z,0.40
2018-12-13T11:48:58.924Z,0.40
2018-12-13T11:51:38.951Z,0.60
2018-12-13T11:54:19.854Z,0.50
2018-12-13T11:56:50.770Z,0.40
2018-12-13T11:59:30.521Z,0.20
2018-12-13T12:02:11.149Z,0.10
2018-12-13T12:04:44.604Z,0.00
2018-12-13T12:07:24.813Z,0.00
2018-12-13T12:10:04.756Z,-0.10
2018-12-13T12:12:38.167Z,-0.10
2018-12-13T12:15:18.502Z,-0.10
2018-12-13T12:17:58.225Z,-0.10
2018-12-13T12:20:38.294Z,-0.10
2018-12-13T12:23:19.172Z,-0.10
2018-12-13T12:26:01.576Z,0.00
2018-12-13T12:28:33.231Z,0.10
2018-12-13T12:31:06.670Z,0.30
2018-12-13T12:33:46.576Z,0.70
2018-12-13T12:36:17.406Z,0.80
2018-12-13T12:41:55.921Z,0.70
2018-12-13T12:47:35.841Z,0.80
2018-12-13T12:50:16.346Z,0.50
2018-12-13T12:52:56.221Z,0.40
2018-12-13T12:55:29.770Z,0.50
2018-12-13T12:58:03.605Z,0.60
2018-12-13T13:00:35.085Z,0.80
2018-12-13T13:03:09.427Z,0.80
2018-12-13T13:05:47.241Z,1.00
2018-12-13T13:08:27.770Z,0.90
2018-12-13T13:10:59.473Z,0.80
2018-12-13T13:13:39.429Z,0.80
2018-12-13T13:16:10.843Z,0.70
2018-12-13T13:18:42.309Z,0.90
2018-12-13T13:21:15.720Z,1.00
2018-12-13T13:23:55.963Z,1.00
2018-12-13T13:26:34.501Z,0.90
2018-12-13T13:29:08.314Z,0.90
2018-12-13T13:31:39.695Z,0.80
2018-12-13T13:34:19.985Z,0.80
2018-12-13T13:36:50.791Z,1.00
2018-12-13T13:39:31.436Z,1.00
2018-12-13T13:42:12.359Z,1.00
2018-12-13T13:47:52.550Z,1.00
2018-12-13T13:50:21.926Z,0.80
2018-12-13T13:55:54.870Z,0.90
2018-12-13T13:58:42.539Z,0.90
2018-12-13T14:04:22.928Z,0.70
2018-12-13T14:06:55.211Z,0.60
2018-12-13T14:09:45.546Z,0.50
2018-12-13T14:12:20.367Z,0.20
2018-12-13T14:15:00.739Z,0.20
2018-12-13T14:17:44.386Z,0.10
2018-12-13T14:20:15.817Z,0.10
2018-12-13T14:22:45.703Z,0.10
2018-12-13T14:25:26.129Z,0.20
2018-12-13T14:27:58.630Z,0.30
2018-12-13T14:30:30.689Z,0.20
2018-12-13T14:33:00.313Z,0.20
2018-12-13T14:35:48.451Z,0.10
2018-12-13T14:38:28.867Z,0.00
2018-12-13T14:41:08.890Z,0.00
2018-12-13T14:43:49.493Z,0.10
2018-12-13T14:46:29.429Z,0.00
2018-12-13T14:49:10.429Z,0.00
2018-12-13T14:52:01.227Z,0.00
2018-12-13T14:54:49.711Z,0.00
2018-12-13T14:57:37.632Z,0.10
2018-12-13T15:00:12.726Z,0.00
2018-12-13T15:02:53.694Z,-0.10
2018-12-13T15:05:27.842Z,0.00
2018-12-13T15:07:59.089Z,0.00
2018-12-13T15:10:39.375Z,-0.10
2018-12-13T15:13:10.234Z,-0.10
2018-12-13T15:15:45.109Z,-0.10
2018-12-13T15:18:27.346Z,0.00
2018-12-13T15:21:08.119Z,0.00
2018-12-13T15:23:41.992Z,0.00
2018-12-13T15:26:22.441Z,-0.10
2018-12-13T15:35:15.351Z,-0.30
2018-12-13T15:37:46.934Z,-0.30
2018-12-13T15:40:26.819Z,-0.30
2018-12-13T15:43:06.763Z,-0.20
2018-12-13T15:45:37.933Z,-0.30
2018-12-13T15:48:08.745Z,-0.20
2018-12-13T15:50:41.981Z,-0.30
2018-12-13T15:53:22.350Z,-0.30
2018-12-13T15:55:55.914Z,-0.40
2018-12-13T15:58:29.866Z,-0.40
2018-12-13T16:01:00.534Z,-0.40
2018-12-13T16:03:31.380Z,-0.40
2018-12-13T16:06:04.912Z,-0.40
2018-12-13T16:08:38.696Z,-0.40
2018-12-13T16:11:08.698Z,-0.50
2018-12-13T16:13:48.754Z,-0.50
2018-12-13T16:16:28.671Z,-0.50
2018-12-13T16:19:02.374Z,-0.50
2018-12-13T16:21:49.976Z,-0.60
2018-12-13T16:24:40.504Z,-0.60
2018-12-13T16:27:14.283Z,-0.50
2018-12-13T16:29:54.057Z,-0.50
2018-12-13T16:32:34.325Z,-0.40
2018-12-13T16:35:05.646Z,-0.30
2018-12-13T16:37:36.144Z,-0.30
2018-12-13T16:40:24.276Z,-0.40
2018-12-13T16:45:52.320Z,-0.20
2018-12-13T16:48:33.295Z,-0.20
2018-12-13T16:51:12.858Z,-0.20
2018-12-13T16:53:44.033Z,-0.30
2018-12-13T16:59:17.254Z,-0.30
2018-12-13T17:01:57.431Z,-0.40
2018-12-13T17:10:39.347Z,-0.50
2018-12-13T17:13:13.096Z,-0.50
2018-12-13T17:15:57.491Z,-0.50
2018-12-13T17:18:38.991Z,-0.50
2018-12-13T17:21:18.905Z,-0.50
2018-12-13T17:23:58.497Z,-0.50
2018-12-13T17:26:38.322Z,-0.60
2018-12-13T17:29:17.852Z,-0.60
2018-12-13T17:31:51.006Z,-0.70
2018-12-13T17:34:28.829Z,-0.70
2018-12-13T17:37:03.897Z,-0.70
2018-12-13T17:39:44.891Z,-0.80
2018-12-13T17:42:25.315Z,-0.90
2018-12-13T17:44:56.179Z,-1.00
2018-12-13T17:47:36.102Z,-1.00
2018-12-13T17:53:14.557Z,-1.10
2018-12-13T17:55:54.870Z,-1.10
2018-12-13T18:01:31.193Z,-1.00
2018-12-13T18:04:11.666Z,-1.00
2018-12-13T18:06:48.931Z,-1.00
2018-12-13T18:09:29.357Z,-1.00
2018-12-13T18:12:09.313Z,-1.00
2018-12-13T18:14:50.155Z,-1.00
2018-12-13T18:17:23.630Z,-0.90
2018-12-13T18:19:55.066Z,-0.90
2018-12-13T18:31:45.266Z,-0.90
2018-12-13T18:34:25.437Z,-0.90
2018-12-13T18:36:56.222Z,-0.90
2018-12-13T18:39:35.962Z,-0.90
2018-12-13T18:42:15.911Z,-1.00
2018-12-13T18:47:41.750Z,-1.00
2018-12-13T18:50:15.638Z,-0.90
2018-12-13T18:52:46.263Z,-0.90
2018-12-13T18:55:31.063Z,-0.70
2018-12-13T18:58:04.470Z,-0.50
2018-12-13T19:00:52.222Z,-0.40
2018-12-13T19:03:26.036Z,-0.40
2018-12-13T19:06:06.338Z,-0.30
2018-12-13T19:08:39.722Z,-0.30
2018-12-13T19:11:20.161Z,-0.40
2018-12-13T19:13:55.510Z,-0.50
2018-12-13T19:16:28.998Z,-0.50
2018-12-13T19:19:02.624Z,-0.50
2018-12-13T19:21:34.074Z,-0.50
2018-12-13T19:24:07.194Z,-0.60
2018-12-13T19:26:36.673Z,-0.70
2018-12-13T19:29:09.730Z,-0.70
2018-12-13T19:31:57.465Z,-0.70
2018-12-13T19:44:39.418Z,-0.90
2018-12-13T19:47:10.082Z,-1.00
2018-12-13T19:49:48.068Z,-1.00
2018-12-13T19:52:21.930Z,-1.10
2018-12-13T19:54:55.730Z,-1.10
2018-12-13T19:57:36.023Z,-1.20
2018-12-13T20:00:09.575Z,-1.20
2018-12-13T20:02:49.823Z,-1.20
2018-12-13T20:05:20.884Z,-1.20
2018-12-13T20:07:52.130Z,-1.30
2018-12-13T20:10:25.197Z,-1.30
2018-12-13T20:12:58.997Z,-1.30
2018-12-13T20:15:33.389Z,-1.20
2018-12-13T20:18:13.277Z,-1.10
2018-12-13T20:20:46.508Z,-1.00
2018-12-13T20:23:26.924Z,-1.00
2018-12-13T20:26:00.114Z,-0.90
2018-12-13T20:28:31.754Z,-0.90
2018-12-13T20:31:19.876Z,-0.90
2018-12-13T20:34:00.345Z,-0.90
2018-12-13T20:36:31.168Z,-1.00
2018-12-13T20:39:11.138Z,-1.10
2018-12-13T20:41:59.320Z,-1.10
2018-12-13T20:44:33.470Z,-1.10
2018-12-13T20:47:13.839Z,-1.20
2018-12-13T20:49:53.597Z,-1.10
2018-12-13T20:52:33.416Z,-1.20
2018-12-13T20:55:04.741Z,-1.20
2018-12-13T20:57:45.037Z,-1.20
2018-12-13T21:00:16.212Z,-1.10
2018-12-13T21:02:48.243Z,-1.10
2018-12-13T21:05:20.050Z,-1.20
2018-12-13T21:07:58.456Z,-1.20
2018-12-13T21:10:42.688Z,-1.30
2018-12-13T21:13:23.129Z,-1.30
2018-12-13T21:15:53.812Z,-1.30
2018-12-13T21:18:42.055Z,-1.30
2018-12-13T21:21:13.555Z,-1.30
2018-12-13T21:23:53.318Z,-1.30
2018-12-13T21:26:24.218Z,-1.20
2018-12-13T21:29:02.995Z,-1.00
2018-12-13T21:31:49.077Z,-0.80
2018-12-13T21:34:18.739Z,-0.90
2018-12-13T21:36:56.830Z,-1.00
2018-12-13T21:39:37.265Z,-1.10
2018-12-13T21:42:17.086Z,-1.10
2018-12-13T21:44:54.518Z,-1.10
2018-12-13T21:47:34.990Z,-1.20
2018-12-13T21:50:07.287Z,-1.20
2018-12-13T21:52:45.693Z,-1.30
2018-12-13T21:55:26.578Z,-1.30
2018-12-13T21:58:04.167Z,-1.30
2018-12-13T22:03:44.921Z,-1.40
2018-12-13T22:06:18.555Z,-1.40
2018-12-13T22:08:48.039Z,-1.40
2018-12-13T22:11:27.770Z,-1.40
2018-12-13T22:13:58.910Z,-1.40
2018-12-13T22:19:38.095Z,-1.40
2018-12-13T22:22:18.013Z,-1.40
2018-12-13T22:24:55.506Z,-1.40
2018-12-13T22:27:33.334Z,-1.50
2018-12-13T22:30:13.753Z,-1.40
2018-12-13T22:32:50.933Z,-1.40
2018-12-13T22:35:22.610Z,-1.40
2018-12-13T22:38:00.087Z,-1.40
2018-12-13T22:40:33.893Z,-1.50
2018-12-13T22:43:20.423Z,-1.50
2018-12-13T22:48:40.489Z,-1.50
2018-12-13T22:51:12.389Z,-1.50
2018-12-13T22:53:48.736Z,-1.50
2018-12-13T22:56:19.718Z,-1.40
2018-12-13T22:58:51.127Z,-1.40
2018-12-13T23:01:24.967Z,-1.30
2018-12-13T23:03:58.678Z,-1.10
2018-12-13T23:06:31.435Z,-0.90
2018-12-13T23:09:04.243Z,-0.90
2018-12-13T23:11:35.345Z,-0.90
2018-12-13T23:14:06.958Z,-1.00
2018-12-13T23:16:38.568Z,-1.10
2018-12-13T23:19:10.344Z,-1.10
2018-12-13T23:21:41.114Z,-1.10
2018-12-13T23:24:10.287Z,-1.10
2018-12-13T23:26:44.278Z,-1.10
2018-12-13T23:29:15.467Z,-1.20
2018-12-13T23:31:49.136Z,-1.20
2018-12-13T23:34:20.277Z,-1.20
2018-12-13T23:36:52.722Z,-1.10
2018-12-13T23:39:24.106Z,-1.00
2018-12-13T23:41:57.608Z,-1.00
2018-12-13T23:44:37.558Z,-0.90
2018-12-13T23:47:09.114Z,-0.90
2018-12-13T23:49:40.890Z,-0.80
2018-12-13T23:52:12.376Z,-0.70
2018-12-13T23:55:03.316Z,-0.70
2018-12-13T23:57:48.293Z,-0.70
